| time (UTC) | temp C | wind direction | speed KPH | gust KPH | rain 1hr cm | rain 24hr cm | rain mn cm | humidity % | barometer mb |
| 20260508043603 | 10 | 349 | 3.2 | 9.7 | 0.15 | 0.74 | 0.15 | 99 | 1016.4 |
| 20260508042703 | 10 | 317 | 3.2 | 9.7 | 0.13 | 0.71 | 0.13 | 99 | 1016.4 |
| 20260508041803 | 10 | 347 | 4.8 | 11.3 | 0.10 | 0.71 | 0.10 | 99 | 1016.2 |
| 20260508040903 | 10 | 321 | 3.2 | 9.7 | 0.03 | 0.64 | 0.05 | 99 | 1016.1 |
| 20260508040003 | 10 | 345 | 3.2 | 9.7 | 0.00 | 0.61 | 0.00 | 99 | 1015.9 |
| 20260508035403 | 10 | 342 | 4.8 | 9.7 | 0.00 | 0.61 | 0.00 | 99 | 1016.1 |
| 20260508034503 | 10 | 338 | 4.8 | 11.3 | 0.00 | 0.61 | 0.00 | 99 | 1015.6 |
| 20260508033603 | 10 | 353 | 3.2 | 6.4 | 0.00 | 0.61 | 0.00 | 99 | 1015.6 |
| 20260508032913 | 10 | 355 | 3.2 | 8.0 | 0.00 | 0.61 | 0.00 | 99 | 1015.5 |
| 20260508032013 | 10 | 3 | 3.2 | 6.4 | 0.00 | 0.61 | 0.00 | 99 | 1015.4 |
| 20260508030903 | 10 | 359 | 3.2 | 8.0 | 0.00 | 0.61 | 0.00 | 99 | 1015.4 |
| 20260508030003 | 11 | 5 | 3.2 | 8.0 | 0.00 | 0.61 | 0.00 | 99 | 1015.3 |
| 20260508025403 | 11 | 356 | 3.2 | 8.0 | 0.00 | 0.61 | 0.00 | 99 | 1015.2 |
| 20260508024503 | 11 | 352 | 3.2 | 9.7 | 0.00 | 0.61 | 0.00 | 99 | 1015.4 |
| 20260508023603 | 11 | 355 | 4.8 | 8.0 | 0.00 | 0.61 | 0.00 | 99 | 1015.6 |
| 20260508022703 | 11 | 345 | 4.8 | 11.3 | 0.00 | 0.61 | 0.00 | 99 | 1015.4 |
| 20260508021803 | 11 | 353 | 4.8 | 11.3 | 0.00 | 0.61 | 0.00 | 99 | 1015.3 |
| 20260508020903 | 11 | 359 | 3.2 | 9.7 | 0.00 | 0.61 | 0.00 | 99 | 1015.3 |
| 20260508020213 | 11 | 4 | 0.0 | 3.2 | 0.00 | 0.61 | 0.00 | 99 | 1015.2 |
| 20260508015403 | 11 | 8 | 1.6 | 4.8 | 0.00 | 0.61 | 0.00 | 99 | 1015.2 |
| 20260508014714 | 11 | 89 | 0.0 | 3.2 | 0.00 | 0.61 | 0.00 | 99 | 1015.1 |
| 20260508013813 | 11 | 155 | 0.0 | 3.2 | 0.00 | 0.61 | 0.00 | 99 | 1015.5 |
| 20260508012703 | 11 | 75 | 0.0 | 3.2 | 0.00 | 0.61 | 0.00 | 99 | 1015.1 |
| 20260508011803 | 11 | 149 | 0.0 | 3.2 | 0.00 | 0.61 | 0.00 | 99 | 1015.3 |
| 20260508010903 | 11 | 166 | 0.0 | 3.2 | 0.00 | 0.61 | 0.00 | 99 | 1015.2 |
| 20260508010003 | 11 | 157 | 0.0 | 3.2 | 0.00 | 0.61 | 0.00 | 99 | 1015.1 |
| 20260508005403 | 11 | 173 | 0.0 | 3.2 | 0.00 | 0.61 | 0.00 | 99 | 1015.0 |
| 20260508004503 | 11 | 152 | 0.0 | 3.2 | 0.00 | 0.61 | 0.00 | 99 | 1014.9 |
| 20260508003603 | 11 | 139 | 0.0 | 3.2 | 0.00 | 0.61 | 0.00 | 99 | 1015.1 |
| 20260508002703 | 11 | 133 | 1.6 | 3.2 | 0.00 | 0.61 | 0.00 | 99 | 1015.2 |
| 20260508001803 | 11 | 111 | 0.0 | 3.2 | 0.00 | 0.61 | 0.00 | 99 | 1015.0 |
| 20260508000903 | 11 | 126 | 0.0 | 3.2 | 0.00 | 0.61 | 0.00 | 99 | 1015.1 |
| 20260508000003 | 11 | 172 | 0.0 | 3.2 | 0.00 | 0.61 | 0.00 | 99 | 1014.9 |
| 20260507235403 | 11 | 163 | 0.0 | 3.2 | 0.00 | 0.61 | 0.00 | 99 | 1015.2 |
| 20260507234503 | 11 | 176 | 0.0 | 3.2 | 0.00 | 0.61 | 0.00 | 99 | 1015.1 |
| 20260507233603 | 11 | 79 | 0.0 | 3.2 | 0.00 | 0.61 | 0.00 | 99 | 1015.1 |
| 20260507232703 | 11 | 181 | 0.0 | 3.2 | 0.00 | 0.61 | 0.00 | 99 | 1015.4 |
| 20260507231803 | 11 | 62 | 0.0 | 3.2 | 0.00 | 0.61 | 0.00 | 99 | 1015.2 |
| 20260507230903 | 11 | 59 | 1.6 | 4.8 | 0.00 | 0.61 | 0.00 | 99 | 1015.0 |
| 20260507230003 | 11 | 104 | 0.0 | 3.2 | 0.00 | 0.61 | 0.00 | 99 | 1015.2 |
| 20260507225403 | 11 | 149 | 1.6 | 3.2 | 0.03 | 0.61 | 0.00 | 99 | 1015.4 |
| 20260507224504 | 11 | 64 | 0.0 | 3.2 | 0.03 | 0.61 | 0.00 | 99 | 1015.4 |
| 20260507223603 | 11 | 276 | 1.6 | 4.8 | 0.05 | 0.61 | 0.00 | 99 | 1015.4 |
| 20260507222703 | 11 | 354 | 1.6 | 4.8 | 0.10 | 0.61 | 0.00 | 99 | 1015.3 |
| 20260507221803 | 11 | 317 | 1.6 | 6.4 | 0.10 | 0.58 | 0.00 | 99 | 1015.4 |
| 20260507220903 | 11 | 306 | 3.2 | 9.7 | 0.10 | 0.58 | 0.00 | 99 | 1015.2 |
| 20260507220003 | 11 | 105 | 3.2 | 9.7 | 0.13 | 0.58 | 0.00 | 99 | 1014.8 |
| 20260507215403 | 11 | 103 | 3.2 | 9.7 | 0.13 | 0.58 | 0.58 | 99 | 1014.7 |
| 20260507214503 | 11 | 120 | 1.6 | 6.4 | 0.10 | 0.56 | 0.56 | 99 | 1014.7 |
| 20260507213813 | 11 | 118 | 3.2 | 6.4 | 0.10 | 0.53 | 0.53 | 99 | 1014.6 |
| 20260507212703 | 11 | 110 | 3.2 | 11.3 | 0.08 | 0.48 | 0.48 | 98 | 1014.6 |
| 20260507211803 | 11 | 152 | 1.6 | 6.4 | 0.10 | 0.48 | 0.48 | 98 | 1014.7 |
| 20260507210903 | 11 | 133 | 1.6 | 6.4 | 0.15 | 0.48 | 0.48 | 98 | 1014.6 |
| 20260507210003 | 11 | 162 | 1.6 | 4.8 | 0.15 | 0.48 | 0.48 | 98 | 1014.8 |
| 20260507205403 | 11 | 163 | 1.6 | 4.8 | 0.15 | 0.46 | 0.46 | 98 | 1014.8 |
| 20260507204503 | 11 | 119 | 3.2 | 6.4 | 0.18 | 0.46 | 0.46 | 98 | 1014.6 |
| 20260507203603 | 11 | 109 | 1.6 | 6.4 | 0.18 | 0.43 | 0.43 | 98 | 1014.7 |
| 20260507202703 | 11 | 126 | 1.6 | 4.8 | 0.15 | 0.41 | 0.41 | 97 | 1014.7 |
| 20260507201803 | 11 | 114 | 1.6 | 4.8 | 0.18 | 0.38 | 0.38 | 97 | 1014.8 |
| 20260507200903 | 11 | 102 | 1.6 | 4.8 | 0.20 | 0.33 | 0.33 | 97 | 1014.8 |
| 20260507200003 | 12 | 22 | 1.6 | 3.2 | 0.23 | 0.33 | 0.33 | 96 | 1015.0 |
| 20260507195614 | 12 | 9 | 1.6 | 3.2 | 0.25 | 0.30 | 0.30 | 96 | 1015.0 |
| 20260507194503 | 12 | 105 | 1.6 | 4.8 | 0.25 | 0.28 | 0.28 | 96 | 1014.7 |
| 20260507193603 | 12 | 117 | 1.6 | 4.8 | 0.23 | 0.28 | 0.28 | 95 | 1014.9 |
| 20260507192703 | 12 | 103 | 1.6 | 3.2 | 0.23 | 0.25 | 0.25 | 95 | 1014.8 |
| 20260507191803 | 12 | 193 | 1.6 | 6.4 | 0.18 | 0.20 | 0.20 | 95 | 1015.0 |
| 20260507190903 | 12 | 226 | 1.6 | 6.4 | 0.10 | 0.13 | 0.13 | 93 | 1014.9 |
| 20260507190004 | 12 | 299 | 0.0 | 4.8 | 0.05 | 0.08 | 0.08 | 91 | 1014.5 |
| 20260507185403 | 12 | 353 | 1.6 | 6.4 | 0.00 | 0.05 | 0.05 | 90 | 1014.5 |
| 20260507184503 | 12 | 46 | 1.6 | 4.8 | 0.00 | 0.05 | 0.05 | 89 | 1014.2 |
| 20260507183603 | 12 | 18 | 3.2 | 6.4 | 0.00 | 0.05 | 0.05 | 88 | 1013.8 |
| 20260507182703 | 12 | 16 | 3.2 | 6.4 | 0.00 | 0.05 | 0.05 | 88 | 1013.6 |
| 20260507181803 | 12 | 11 | 3.2 | 9.7 | 0.00 | 0.05 | 0.05 | 87 | 1013.7 |
| 20260507180903 | 12 | 357 | 6.4 | 12.9 | 0.00 | 0.05 | 0.05 | 87 | 1013.4 |
| 20260507180003 | 12 | 360 | 8.0 | 19.3 | 0.00 | 0.05 | 0.05 | 86 | 1013.1 |
| 20260507175403 | 12 | 357 | 8.0 | 22.5 | 0.00 | 0.05 | 0.05 | 86 | 1013.2 |
| 20260507174503 | 12 | 350 | 9.7 | 19.3 | 0.00 | 0.05 | 0.05 | 85 | 1012.9 |
| 20260507173603 | 13 | 344 | 8.0 | 19.3 | 0.00 | 0.05 | 0.05 | 83 | 1013.2 |
| 20260507172703 | 13 | 352 | 8.0 | 17.7 | 0.00 | 0.05 | 0.05 | 83 | 1013.0 |
| 20260507171803 | 13 | 340 | 11.3 | 24.1 | 0.00 | 0.03 | 0.03 | 83 | 1012.9 |
| 20260507170903 | 15 | 328 | 11.3 | 27.4 | 0.00 | 0.03 | 0.03 | 80 | 1013.0 |
| 20260507170003 | 17 | 252 | 3.2 | 14.5 | 0.03 | 0.03 | 0.03 | 78 | 1012.6 |
| 20260507165403 | 17 | 216 | 1.6 | 6.4 | 0.03 | 0.03 | 0.03 | 78 | 1012.3 |
| 20260507164503 | 16 | 204 | 1.6 | 4.8 | 0.03 | 0.03 | 0.03 | 79 | 1011.9 |
| 20260507163603 | 16 | 178 | 1.6 | 8.0 | 0.03 | 0.03 | 0.03 | 78 | 1011.8 |
| 20260507162703 | 17 | 172 | 3.2 | 9.7 | 0.03 | 0.03 | 0.03 | 80 | 1011.6 |
| 20260507161803 | 17 | 169 | 0.0 | 4.8 | 0.03 | 0.03 | 0.03 | 80 | 1011.6 |
| 20260507160903 | 17 | 100 | 3.2 | 6.4 | 0.03 | 0.03 | 0.03 | 78 | 1011.6 |
| 20260507160003 | 18 | 101 | 3.2 | 8.0 | 0.00 | 0.00 | 0.00 | 74 | 1011.4 |
| 20260507155403 | 18 | 101 | 3.2 | 8.0 | 0.00 | 0.00 | 0.00 | 72 | 1011.6 |
| 20260507154503 | 18 | 102 | 4.8 | 9.7 | 0.00 | 0.00 | 0.00 | 69 | 1011.8 |
| 20260507153603 | 18 | 107 | 1.6 | 6.4 | 0.00 | 0.00 | 0.00 | 68 | 1011.6 |
| 20260507152703 | 18 | 95 | 1.6 | 4.8 | 0.00 | 0.00 | 0.00 | 66 | 1011.6 |
| 20260507151803 | 18 | 85 | 1.6 | 3.2 | 0.00 | 0.00 | 0.00 | 65 | 1012.0 |
| 20260507151113 | 19 | 35 | 1.6 | 3.2 | 0.00 | 0.00 | 0.00 | 65 | 1011.8 |
| 20260507150003 | 19 | 321 | 1.6 | 3.2 | 0.00 | 0.00 | 0.00 | 66 | 1011.8 |
| 20260507145403 | 19 | 360 | 1.6 | 4.8 | 0.00 | 0.00 | 0.00 | 67 | 1011.6 |
| 20260507144503 | 18 | 338 | 1.6 | 6.4 | 0.00 | 0.00 | 0.00 | 67 | 1011.5 |
| 20260507143603 | 18 | 352 | 3.2 | 6.4 | 0.00 | 0.00 | 0.00 | 67 | 1011.6 |
| 20260507142703 | 18 | 349 | 4.8 | 9.7 | 0.00 | 0.00 | 0.00 | 68 | 1011.3 |
| 20260507141803 | 19 | 357 | 4.8 | 9.7 | 0.00 | 0.00 | 0.00 | 67 | 1011.4 |
| 20260507140903 | 19 | 351 | 6.4 | 16.1 | 0.00 | 0.00 | 0.00 | 66 | 1011.3 |
| 20260507140003 | 19 | 338 | 4.8 | 12.9 | 0.00 | 0.00 | 0.00 | 65 | 1011.5 |
| 20260507135403 | 20 | 299 | 3.2 | 6.4 | 0.00 | 0.00 | 0.00 | 62 | 1011.5 |
| 20260507134713 | 20 | 291 | 3.2 | 9.7 | 0.00 | 0.00 | 0.00 | 63 | 1011.4 |
| 20260507133603 | 20 | 321 | 3.2 | 8.0 | 0.00 | 0.00 | 0.00 | 63 | 1011.3 |
| 20260507132703 | 19 | 333 | 4.8 | 9.7 | 0.00 | 0.00 | 0.00 | 63 | 1011.6 |
| 20260507131803 | 19 | 310 | 4.8 | 14.5 | 0.00 | 0.00 | 0.00 | 64 | 1011.5 |
| 20260507130903 | 20 | 321 | 4.8 | 9.7 | 0.00 | 0.00 | 0.00 | 64 | 1011.6 |
| 20260507130003 | 19 | 320 | 3.2 | 14.5 | 0.00 | 0.00 | 0.00 | 64 | 1011.9 |
| 20260507125403 | 19 | 304 | 3.2 | 9.7 | 0.00 | 0.00 | 0.00 | 63 | 1011.6 |
| 20260507124503 | 19 | 312 | 3.2 | 8.0 | 0.00 | 0.00 | 0.00 | 65 | 1011.8 |
| 20260507123603 | 19 | 311 | 3.2 | 9.7 | 0.00 | 0.00 | 0.00 | 66 | 1011.6 |
| 20260507122914 | 19 | 321 | 3.2 | 9.7 | 0.00 | 0.00 | 0.00 | 67 | 1011.5 |
| 20260507121803 | 19 | 225 | 4.8 | 12.9 | 0.00 | 0.00 | 0.00 | 65 | 1011.9 |
| 20260507120903 | 19 | 266 | 3.2 | 9.7 | 0.00 | 0.00 | 0.00 | 63 | 1011.8 |
| 20260507120214 | 19 | 253 | 3.2 | 9.7 | 0.00 | 0.00 | 0.00 | 64 | 1011.8 |
| 20260507115403 | 19 | 216 | 4.8 | 12.9 | 0.00 | 0.00 | 0.00 | 66 | 1011.6 |
| 20260507114712 | 19 | 212 | 4.8 | 14.5 | 0.00 | 0.00 | 0.00 | 65 | 1011.8 |
| 20260507113814 | 19 | 242 | 4.8 | 11.3 | 0.00 | 0.00 | 0.00 | 62 | 1011.9 |
| 20260507112703 | 19 | 266 | 4.8 | 9.7 | 0.00 | 0.00 | 0.00 | 65 | 1011.6 |
| 20260507111803 | 18 | 237 | 4.8 | 11.3 | 0.00 | 0.00 | 0.00 | 65 | 1011.9 |
| 20260507110903 | 18 | 225 | 4.8 | 16.1 | 0.00 | 0.00 | 0.00 | 66 | 1011.6 |
| 20260507110213 | 18 | 209 | 6.4 | 16.1 | 0.00 | 0.00 | 0.00 | 65 | 1011.5 |
| 20260507105403 | 18 | 213 | 6.4 | 16.1 | 0.00 | 0.00 | 0.00 | 64 | 1011.4 |
| 20260507104503 | 18 | 223 | 4.8 | 17.7 | 0.00 | 0.00 | 0.00 | 65 | 1011.3 |
| 20260507103603 | 18 | 200 | 6.4 | 14.5 | 0.00 | 0.00 | 0.00 | 65 | 1011.4 |
| 20260507102703 | 18 | 196 | 6.4 | 16.1 | 0.00 | 0.00 | 0.00 | 64 | 1011.4 |
| 20260507101803 | 18 | 214 | 6.4 | 16.1 | 0.00 | 0.00 | 0.00 | 64 | 1011.3 |
| 20260507100903 | 18 | 213 | 6.4 | 16.1 | 0.00 | 0.00 | 0.00 | 64 | 1011.2 |
| 20260507100003 | 19 | 212 | 6.4 | 16.1 | 0.00 | 0.00 | 0.00 | 63 | 1011.0 |
| 20260507095403 | 18 | 210 | 8.0 | 19.3 | 0.00 | 0.00 | 0.00 | 63 | 1011.3 |
| 20260507094503 | 19 | 207 | 6.4 | 16.1 | 0.00 | 0.00 | 0.00 | 62 | 1011.0 |
| 20260507093603 | 19 | 206 | 8.0 | 22.5 | 0.00 | 0.00 | 0.00 | 62 | 1010.8 |
| 20260507092703 | 19 | 212 | 6.4 | 17.7 | 0.00 | 0.00 | 0.00 | 59 | 1011.0 |
| 20260507091803 | 19 | 209 | 8.0 | 24.1 | 0.00 | 0.00 | 0.00 | 62 | 1010.6 |
| 20260507091113 | 19 | 207 | 6.4 | 19.3 | 0.00 | 0.00 | 0.00 | 61 | 1010.6 |
| 20260507090212 | 19 | 209 | 8.0 | 19.3 | 0.00 | 0.00 | 0.00 | 61 | 1010.3 |
| 20260507085614 | 18 | 218 | 8.0 | 19.3 | 0.00 | 0.00 | 0.00 | 61 | 1010.2 |
| 20260507084503 | 19 | 215 | 8.0 | 17.7 | 0.00 | 0.00 | 0.00 | 59 | 1010.1 |
| 20260507083812 | 19 | 210 | 9.7 | 20.9 | 0.00 | 0.00 | 0.00 | 59 | 1010.1 |
| 20260507082703 | 20 | 206 | 8.0 | 20.9 | 0.00 | 0.00 | 0.00 | 59 | 1010.1 |
| 20260507081803 | 20 | 205 | 6.4 | 20.9 | 0.00 | 0.00 | 0.00 | 59 | 1009.9 |
| 20260507080903 | 19 | 192 | 6.4 | 19.3 | 0.00 | 0.00 | 0.00 | 60 | 1009.7 |
| 20260507080003 | 20 | 200 | 6.4 | 14.5 | 0.00 | 0.00 | 0.00 | 60 | 1009.8 |
| 20260507075403 | 20 | 201 | 6.4 | 19.3 | 0.00 | 0.00 | 0.00 | 59 | 1009.6 |
| 20260507074503 | 19 | 200 | 8.0 | 19.3 | 0.00 | 0.00 | 0.00 | 59 | 1009.6 |
| 20260507073603 | 19 | 201 | 6.4 | 17.7 | 0.00 | 0.00 | 0.00 | 60 | 1009.3 |
| 20260507072703 | 19 | 205 | 4.8 | 14.5 | 0.00 | 0.00 | 0.00 | 60 | 1009.5 |
| 20260507072013 | 19 | 217 | 6.4 | 14.5 | 0.00 | 0.00 | 0.00 | 60 | 1009.4 |
| 20260507070903 | 19 | 211 | 6.4 | 16.1 | 0.00 | 0.00 | 0.00 | 60 | 1009.2 |
| 20260507070005 | 19 | 206 | 6.4 | 16.1 | 0.00 | 0.00 | 0.00 | 59 | 1009.3 |
| 20260507065403 | 18 | 206 | 6.4 | 16.1 | 0.00 | 0.00 | 0.00 | 62 | 1009.1 |
| 20260507064503 | 18 | 204 | 6.4 | 16.1 | 0.00 | 0.00 | 0.00 | 60 | 1009.3 |
| 20260507063603 | 18 | 214 | 6.4 | 16.1 | 0.00 | 0.00 | 0.00 | 62 | 1008.9 |
| 20260507062703 | 18 | 225 | 6.4 | 17.7 | 0.00 | 0.00 | 0.00 | 61 | 1009.1 |
| 20260507061803 | 18 | 218 | 4.8 | 12.9 | 0.00 | 0.00 | 0.00 | 61 | 1009.1 |
| 20260507060903 | 18 | 205 | 6.4 | 14.5 | 0.00 | 0.00 | 0.00 | 63 | 1008.9 |
| 20260507060003 | 18 | 206 | 4.8 | 14.5 | 0.00 | 0.00 | 0.00 | 63 | 1008.7 |
| 20260507055403 | 18 | 213 | 4.8 | 12.9 | 0.00 | 0.00 | 0.00 | 63 | 1008.6 |
| 20260507054503 | 18 | 212 | 4.8 | 9.7 | 0.00 | 0.00 | 0.00 | 63 | 1008.7 |
| 20260507053603 | 17 | 210 | 4.8 | 14.5 | 0.00 | 0.00 | 0.00 | 65 | 1008.6 |
| 20260507052703 | 17 | 208 | 4.8 | 14.5 | 0.00 | 0.00 | 0.00 | 66 | 1008.6 |
| 20260507052012 | 16 | 201 | 3.2 | 8.0 | 0.00 | 0.00 | 0.00 | 69 | 1008.6 |
| 20260507050903 | 16 | 204 | 1.6 | 4.8 | 0.00 | 0.00 | 0.00 | 70 | 1008.6 |
| 20260507050213 | 16 | 198 | 1.6 | 6.4 | 0.00 | 0.00 | 0.00 | 72 | 1008.6 |
| 20260507045612 | 15 | 204 | 1.6 | 6.4 | 0.00 | 0.00 | 0.00 | 72 | 1008.7 |
| 20260507044714 | 15 | 177 | 1.6 | 3.2 | 0.00 | 0.00 | 0.00 | 74 | 1008.5 |